sensor_id;sensor_type;location;lat;lon;timestamp;pressure;altitude;pressure_sealevel;temperature;humidity
66385;BME280;53426;55.872;37.462;2022-08-11T00:01:44;100072.16;;;15.06;60.76
66385;BME280;53426;55.872;37.462;2022-08-11T00:04:11;100101.31;;;15.17;61.15
66385;BME280;53426;55.872;37.462;2022-08-11T00:06:38;100087.03;;;15.08;61.20
66385;BME280;53426;55.872;37.462;2022-08-11T00:09:08;100096.88;;;15.08;61.14
66385;BME280;53426;55.872;37.462;2022-08-11T00:11:44;100099.53;;;15.08;60.71
66385;BME280;53426;55.872;37.462;2022-08-11T00:14:15;100101.66;;;15.04;60.98
66385;BME280;53426;55.872;37.462;2022-08-11T00:16:41;100094.22;;;14.98;60.68
66385;BME280;53426;55.872;37.462;2022-08-11T00:19:08;100085.66;;;14.95;60.72
66385;BME280;53426;55.872;37.462;2022-08-11T00:21:40;100113.56;;;15.10;59.77
66385;BME280;53426;55.872;37.462;2022-08-11T00:24:08;100091.13;;;15.03;59.96
66385;BME280;53426;55.872;37.462;2022-08-11T00:26:35;100115.94;;;15.13;60.19
66385;BME280;53426;55.872;37.462;2022-08-11T00:29:11;100121.00;;;15.06;60.28
66385;BME280;53426;55.872;37.462;2022-08-11T00:31:37;100118.50;;;15.05;60.34
66385;BME280;53426;55.872;37.462;2022-08-11T00:34:10;100126.63;;;15.03;60.69
66385;BME280;53426;55.872;37.462;2022-08-11T00:36:52;100109.94;;;14.92;60.87
66385;BME280;53426;55.872;37.462;2022-08-11T00:39:21;100125.94;;;14.92;61.22
66385;BME280;53426;55.872;37.462;2022-08-11T00:44:44;100126.06;;;14.90;61.08
66385;BME280;53426;55.872;37.462;2022-08-11T00:50:34;100124.69;;;14.86;61.20
66385;BME280;53426;55.872;37.462;2022-08-11T00:53:35;100125.97;;;14.82;61.15
66385;BME280;53426;55.872;37.462;2022-08-11T00:57:06;100126.09;;;14.81;61.09
66385;BME280;53426;55.872;37.462;2022-08-11T01:02:16;100129.88;;;14.69;62.33
66385;BME280;53426;55.872;37.462;2022-08-11T01:04:55;100132.00;;;14.65;62.95
66385;BME280;53426;55.872;37.462;2022-08-11T01:07:48;100129.47;;;14.63;62.98
66385;BME280;53426;55.872;37.462;2022-08-11T01:16:00;100137.16;;;14.57;63.20
66385;BME280;53426;55.872;37.462;2022-08-11T01:34:00;100146.44;;;14.43;64.06
66385;BME280;53426;55.872;37.462;2022-08-11T01:39:51;100144.91;;;14.50;63.66
66385;BME280;53426;55.872;37.462;2022-08-11T01:45:44;100150.06;;;14.42;63.87
66385;BME280;53426;55.872;37.462;2022-08-11T01:54:06;100157.88;;;14.34;64.34
66385;BME280;53426;55.872;37.462;2022-08-11T01:56:49;100141.59;;;14.18;64.47
66385;BME280;53426;55.872;37.462;2022-08-11T01:59:31;100162.78;;;14.29;64.65
66385;BME280;53426;55.872;37.462;2022-08-11T02:05:35;100168.81;;;14.31;64.48
66385;BME280;53426;55.872;37.462;2022-08-11T02:10:50;100156.66;;;14.38;64.50
66385;BME280;53426;55.872;37.462;2022-08-11T02:17:10;100173.72;;;14.36;64.49
66385;BME280;53426;55.872;37.462;2022-08-11T02:20:14;100174.84;;;14.33;64.87
66385;BME280;53426;55.872;37.462;2022-08-11T02:26:13;100170.50;;;14.32;65.46
66385;BME280;53426;55.872;37.462;2022-08-11T02:31:28;100161.13;;;14.38;65.62
66385;BME280;53426;55.872;37.462;2022-08-11T02:40:17;100169.72;;;14.51;65.45
66385;BME280;53426;55.872;37.462;2022-08-11T02:43:00;100174.63;;;14.55;65.32
66385;BME280;53426;55.872;37.462;2022-08-11T02:45:45;100173.78;;;14.64;65.14
66385;BME280;53426;55.872;37.462;2022-08-11T02:54:35;100192.63;;;14.73;64.88
66385;BME280;53426;55.872;37.462;2022-08-11T03:05:41;100191.75;;;15.01;64.12
66385;BME280;53426;55.872;37.462;2022-08-11T03:11:13;100198.34;;;15.16;63.90
66385;BME280;53426;55.872;37.462;2022-08-11T03:16:55;100195.94;;;15.23;63.72
66385;BME280;53426;55.872;37.462;2022-08-11T03:22:29;100201.13;;;15.24;63.88
66385;BME280;53426;55.872;37.462;2022-08-11T03:28:20;100202.38;;;15.39;63.80
66385;BME280;53426;55.872;37.462;2022-08-11T03:33:31;100208.53;;;15.49;63.07
66385;BME280;53426;55.872;37.462;2022-08-11T04:05:11;100207.94;;;22.07;46.49
66385;BME280;53426;55.872;37.462;2022-08-11T04:10:42;100204.97;;;22.53;45.65
66385;BME280;53426;55.872;37.462;2022-08-11T04:13:34;100198.09;;;22.86;44.84
66385;BME280;53426;55.872;37.462;2022-08-11T04:25:14;100212.56;;;24.26;42.56
66385;BME280;53426;55.872;37.462;2022-08-11T04:31:01;100215.38;;;25.13;40.56
66385;BME280;53426;55.872;37.462;2022-08-11T04:36:40;100214.13;;;25.75;38.73
66385;BME280;53426;55.872;37.462;2022-08-11T04:49:17;100211.75;;;27.88;35.63
66385;BME280;53426;55.872;37.462;2022-08-11T05:01:19;100222.47;;;28.26;34.53
66385;BME280;53426;55.872;37.462;2022-08-11T05:07:13;100210.72;;;28.44;33.05
66385;BME280;53426;55.872;37.462;2022-08-11T05:12:47;100212.59;;;30.09;31.11
66385;BME280;53426;55.872;37.462;2022-08-11T05:15:23;100209.91;;;30.38;30.15
66385;BME280;53426;55.872;37.462;2022-08-11T05:18:16;100201.72;;;30.77;29.07
66385;BME280;53426;55.872;37.462;2022-08-11T05:21:11;100204.88;;;30.58;29.93
66385;BME280;53426;55.872;37.462;2022-08-11T05:24:18;100217.00;;;31.35;29.12
66385;BME280;53426;55.872;37.462;2022-08-11T05:27:04;100218.97;;;31.06;28.75
66385;BME280;53426;55.872;37.462;2022-08-11T05:30:06;100213.78;;;31.72;29.02
66385;BME280;53426;55.872;37.462;2022-08-11T05:33:02;100210.69;;;32.02;27.78
66385;BME280;53426;55.872;37.462;2022-08-11T05:35:48;100201.28;;;31.97;27.67
66385;BME280;53426;55.872;37.462;2022-08-11T05:38:18;100210.94;;;31.50;28.24
66385;BME280;53426;55.872;37.462;2022-08-11T05:41:05;100216.00;;;31.91;27.59
66385;BME280;53426;55.872;37.462;2022-08-11T05:43:50;100200.94;;;31.72;27.88
66385;BME280;53426;55.872;37.462;2022-08-11T05:46:42;100210.69;;;32.40;27.64
66385;BME280;53426;55.872;37.462;2022-08-11T05:49:30;100223.72;;;32.55;26.69
66385;BME280;53426;55.872;37.462;2022-08-11T05:52:23;100215.31;;;33.69;25.23
66385;BME280;53426;55.872;37.462;2022-08-11T05:55:09;100207.97;;;34.31;24.08
66385;BME280;53426;55.872;37.462;2022-08-11T05:58:00;100202.88;;;33.98;24.60
66385;BME280;53426;55.872;37.462;2022-08-11T06:00:27;100205.63;;;33.29;25.74
66385;BME280;53426;55.872;37.462;2022-08-11T06:02:57;100195.72;;;33.60;25.32
66385;BME280;53426;55.872;37.462;2022-08-11T06:05:36;100208.72;;;34.69;24.87
66385;BME280;53426;55.872;37.462;2022-08-11T06:08:06;100209.16;;;34.51;24.57
66385;BME280;53426;55.872;37.462;2022-08-11T06:10:35;100206.28;;;35.03;23.90
66385;BME280;53426;55.872;37.462;2022-08-11T06:13:02;100203.75;;;34.76;23.52
66385;BME280;53426;55.872;37.462;2022-08-11T06:15:31;100206.75;;;34.07;24.33
66385;BME280;53426;55.872;37.462;2022-08-11T06:18:00;100185.06;;;34.73;23.51
66385;BME280;53426;55.872;37.462;2022-08-11T06:20:29;100206.03;;;35.04;23.00
66385;BME280;53426;55.872;37.462;2022-08-11T06:23:02;100210.75;;;35.49;22.93
66385;BME280;53426;55.872;37.462;2022-08-11T06:25:30;100212.69;;;35.89;22.19
66385;BME280;53426;55.872;37.462;2022-08-11T06:27:58;100214.31;;;35.80;22.60
66385;BME280;53426;55.872;37.462;2022-08-11T06:30:40;100213.53;;;35.70;23.00
66385;BME280;53426;55.872;37.462;2022-08-11T06:33:17;100226.16;;;35.65;22.74
66385;BME280;53426;55.872;37.462;2022-08-11T06:36:02;100221.38;;;36.32;22.09
66385;BME280;53426;55.872;37.462;2022-08-11T06:41:30;100212.44;;;36.60;22.35
66385;BME280;53426;55.872;37.462;2022-08-11T06:44:02;100212.50;;;34.58;22.98
66385;BME280;53426;55.872;37.462;2022-08-11T06:46:37;100212.69;;;35.39;22.78
66385;BME280;53426;55.872;37.462;2022-08-11T06:49:07;100201.00;;;36.28;21.96
66385;BME280;53426;55.872;37.462;2022-08-11T06:52:15;100212.97;;;36.67;21.30
66385;BME280;53426;55.872;37.462;2022-08-11T06:54:49;100114.50;;;34.31;23.15
66385;BME280;53426;55.872;37.462;2022-08-11T06:57:28;100208.81;;;35.19;22.34
66385;BME280;53426;55.872;37.462;2022-08-11T07:00:16;100209.34;;;34.24;23.05
66385;BME280;53426;55.872;37.462;2022-08-11T07:03:05;100211.31;;;32.96;24.47
66385;BME280;53426;55.872;37.462;2022-08-11T07:05:52;100221.53;;;33.00;24.67
66385;BME280;53426;55.872;37.462;2022-08-11T07:14:51;100217.78;;;32.85;24.82
66385;BME280;53426;55.872;37.462;2022-08-11T07:18:08;100181.06;;;34.33;22.37
66385;BME280;53426;55.872;37.462;2022-08-11T07:21:07;100205.50;;;35.88;21.19
66385;BME280;53426;55.872;37.462;2022-08-11T07:23:56;100212.94;;;35.47;20.78
66385;BME280;53426;55.872;37.462;2022-08-11T07:26:46;100179.97;;;34.39;22.08
66385;BME280;53426;55.872;37.462;2022-08-11T07:29:34;100211.56;;;35.19;21.13
66385;BME280;53426;55.872;37.462;2022-08-11T07:32:12;100206.00;;;36.21;21.02
66385;BME280;53426;55.872;37.462;2022-08-11T07:34:45;100204.34;;;36.20;20.75
66385;BME280;53426;55.872;37.462;2022-08-11T07:37:15;100198.59;;;33.75;22.74
66385;BME280;53426;55.872;37.462;2022-08-11T07:39:43;100200.34;;;33.54;22.53
66385;BME280;53426;55.872;37.462;2022-08-11T07:42:13;100200.59;;;33.90;21.79
66385;BME280;53426;55.872;37.462;2022-08-11T07:44:41;100199.72;;;35.19;21.22
66385;BME280;53426;55.872;37.462;2022-08-11T07:47:26;100207.59;;;37.30;18.90
66385;BME280;53426;55.872;37.462;2022-08-11T07:50:21;100205.00;;;37.44;18.70
66385;BME280;53426;55.872;37.462;2022-08-11T07:53:06;100192.25;;;35.90;20.42
66385;BME280;53426;55.872;37.462;2022-08-11T07:55:33;100184.69;;;33.92;21.80
66385;BME280;53426;55.872;37.462;2022-08-11T07:58:00;100203.91;;;33.92;21.71
66385;BME280;53426;55.872;37.462;2022-08-11T08:00:49;100207.13;;;35.13;20.78
66385;BME280;53426;55.872;37.462;2022-08-11T08:03:41;100155.56;;;33.96;21.92
66385;BME280;53426;55.872;37.462;2022-08-11T08:06:29;100192.69;;;34.61;21.41
66385;BME280;53426;55.872;37.462;2022-08-11T08:09:17;100203.28;;;35.90;20.58
66385;BME280;53426;55.872;37.462;2022-08-11T08:12:04;100209.34;;;35.87;21.09
66385;BME280;53426;55.872;37.462;2022-08-11T08:14:50;100196.56;;;37.88;19.04
66385;BME280;53426;55.872;37.462;2022-08-11T08:17:35;100185.09;;;37.76;18.29
66385;BME280;53426;55.872;37.462;2022-08-11T08:20:23;100186.78;;;35.30;20.36
66385;BME280;53426;55.872;37.462;2022-08-11T08:22:52;100173.25;;;34.98;21.22
66385;BME280;53426;55.872;37.462;2022-08-11T08:25:37;100184.47;;;36.13;20.31
66385;BME280;53426;55.872;37.462;2022-08-11T08:28:10;100184.88;;;36.99;19.44
66385;BME280;53426;55.872;37.462;2022-08-11T08:30:42;100169.72;;;37.36;18.72
66385;BME280;53426;55.872;37.462;2022-08-11T08:33:27;100141.75;;;38.99;17.90
66385;BME280;53426;55.872;37.462;2022-08-11T08:36:03;100186.53;;;39.70;16.55
66385;BME280;53426;55.872;37.462;2022-08-11T08:38:47;100172.28;;;40.32;16.76
66385;BME280;53426;55.872;37.462;2022-08-11T08:41:20;100186.56;;;40.39;16.34
66385;BME280;53426;55.872;37.462;2022-08-11T08:43:50;100178.78;;;38.41;16.75
66385;BME280;53426;55.872;37.462;2022-08-11T08:46:21;100194.34;;;36.88;18.27
66385;BME280;53426;55.872;37.462;2022-08-11T08:48:49;100135.03;;;35.01;19.65
66385;BME280;53426;55.872;37.462;2022-08-11T08:51:25;100180.00;;;32.65;22.45
66385;BME280;53426;55.872;37.462;2022-08-11T08:54:16;100203.09;;;34.49;21.09
66385;BME280;53426;55.872;37.462;2022-08-11T08:56:49;100198.94;;;35.18;19.96
66385;BME280;53426;55.872;37.462;2022-08-11T08:59:20;100173.00;;;35.65;18.93
66385;BME280;53426;55.872;37.462;2022-08-11T09:01:52;100196.19;;;37.03;17.90
66385;BME280;53426;55.872;37.462;2022-08-11T09:04:21;100194.97;;;36.80;18.10
66385;BME280;53426;55.872;37.462;2022-08-11T09:06:50;100186.13;;;37.22;17.16
66385;BME280;53426;55.872;37.462;2022-08-11T09:09:19;100149.53;;;38.35;16.48
66385;BME280;53426;55.872;37.462;2022-08-11T09:11:56;100160.78;;;39.84;15.27
66385;BME280;53426;55.872;37.462;2022-08-11T09:14:32;100173.56;;;40.75;14.71
66385;BME280;53426;55.872;37.462;2022-08-11T09:17:19;100182.06;;;38.86;16.25
66385;BME280;53426;55.872;37.462;2022-08-11T09:19:46;100158.53;;;37.80;17.12
66385;BME280;53426;55.872;37.462;2022-08-11T09:22:13;100172.84;;;37.82;17.02
66385;BME280;53426;55.872;37.462;2022-08-11T09:25:03;100172.81;;;37.63;17.34
66385;BME280;53426;55.872;37.462;2022-08-11T09:28:15;100171.16;;;38.76;17.11
66385;BME280;53426;55.872;37.462;2022-08-11T09:30:43;100167.38;;;39.23;16.19
66385;BME280;53426;55.872;37.462;2022-08-11T09:33:13;100166.25;;;40.30;15.14
66385;BME280;53426;55.872;37.462;2022-08-11T09:35:40;100167.66;;;39.86;15.27
66385;BME280;53426;55.872;37.462;2022-08-11T09:38:14;100172.69;;;40.88;14.64
66385;BME280;53426;55.872;37.462;2022-08-11T09:41:02;100175.34;;;40.58;14.99
66385;BME280;53426;55.872;37.462;2022-08-11T09:43:30;100162.13;;;39.86;14.87
66385;BME280;53426;55.872;37.462;2022-08-11T09:46:14;100171.59;;;38.45;16.10
66385;BME280;53426;55.872;37.462;2022-08-11T09:48:44;100165.66;;;39.59;15.41
66385;BME280;53426;55.872;37.462;2022-08-11T09:51:12;100171.25;;;39.87;15.03
66385;BME280;53426;55.872;37.462;2022-08-11T09:53:41;100150.28;;;38.83;15.71
66385;BME280;53426;55.872;37.462;2022-08-11T09:56:15;100166.66;;;41.09;14.65
66385;BME280;53426;55.872;37.462;2022-08-11T09:59:02;100164.41;;;41.11;14.45
66385;BME280;53426;55.872;37.462;2022-08-11T10:01:36;100182.47;;;40.36;14.49
66385;BME280;53426;55.872;37.462;2022-08-11T10:04:25;100176.25;;;40.67;14.52
66385;BME280;53426;55.872;37.462;2022-08-11T10:06:59;100162.94;;;40.28;15.47
66385;BME280;53426;55.872;37.462;2022-08-11T10:09:28;100166.06;;;41.43;14.29
66385;BME280;53426;55.872;37.462;2022-08-11T10:12:00;100161.47;;;40.93;14.83
66385;BME280;53426;55.872;37.462;2022-08-11T10:15:00;100159.09;;;41.85;14.82
66385;BME280;53426;55.872;37.462;2022-08-11T10:17:48;100157.41;;;41.66;14.94
66385;BME280;53426;55.872;37.462;2022-08-11T10:20:37;100156.50;;;41.26;14.44
66385;BME280;53426;55.872;37.462;2022-08-11T10:23:13;100140.84;;;41.92;14.34
66385;BME280;53426;55.872;37.462;2022-08-11T10:26:06;100145.81;;;40.48;15.07
66385;BME280;53426;55.872;37.462;2022-08-11T10:28:52;100146.34;;;37.23;17.69
66385;BME280;53426;55.872;37.462;2022-08-11T10:31:21;100144.34;;;35.76;19.56
66385;BME280;53426;55.872;37.462;2022-08-11T10:35:00;100128.69;;;35.56;19.56
66385;BME280;53426;55.872;37.462;2022-08-11T10:37:27;100142.78;;;36.78;18.37
66385;BME280;53426;55.872;37.462;2022-08-11T10:40:06;100139.25;;;37.12;18.53
66385;BME280;53426;55.872;37.462;2022-08-11T10:43:32;100103.66;;;35.12;19.74
66385;BME280;53426;55.872;37.462;2022-08-11T10:46:34;100142.41;;;34.75;20.15
66385;BME280;53426;55.872;37.462;2022-08-11T10:49:33;100090.91;;;33.73;21.00
66385;BME280;53426;55.872;37.462;2022-08-11T10:52:06;100074.09;;;34.37;19.77
66385;BME280;53426;55.872;37.462;2022-08-11T10:54:51;100082.06;;;35.80;18.83
66385;BME280;53426;55.872;37.462;2022-08-11T10:57:37;100131.50;;;36.26;18.93
66385;BME280;53426;55.872;37.462;2022-08-11T11:04:23;100128.16;;;36.29;17.96
66385;BME280;53426;55.872;37.462;2022-08-11T11:07:22;100125.88;;;35.66;19.08
66385;BME280;53426;55.872;37.462;2022-08-11T11:10:06;100092.91;;;34.86;20.28
66385;BME280;53426;55.872;37.462;2022-08-11T11:12:43;100091.97;;;34.29;20.42
66385;BME280;53426;55.872;37.462;2022-08-11T11:15:45;100059.88;;;32.94;21.79
66385;BME280;53426;55.872;37.462;2022-08-11T11:23:17;100054.47;;;30.53;24.05
66385;BME280;53426;55.872;37.462;2022-08-11T11:29:06;100108.47;;;30.06;25.51
66385;BME280;53426;55.872;37.462;2022-08-11T12:01:31;100078.72;;;25.80;31.69
66385;BME280;53426;55.872;37.462;2022-08-11T12:03:59;100091.97;;;26.01;31.00
66385;BME280;53426;55.872;37.462;2022-08-11T12:06:26;100089.25;;;26.01;31.32
66385;BME280;53426;55.872;37.462;2022-08-11T12:08:54;100093.13;;;26.18;32.38
66385;BME280;53426;55.872;37.462;2022-08-11T12:11:22;100100.63;;;25.72;30.83
66385;BME280;53426;55.872;37.462;2022-08-11T12:14:09;100096.41;;;25.89;31.60
66385;BME280;53426;55.872;37.462;2022-08-11T12:16:38;100095.47;;;26.08;31.73
66385;BME280;53426;55.872;37.462;2022-08-11T12:19:10;100087.09;;;26.23;31.47
66385;BME280;53426;55.872;37.462;2022-08-11T12:21:38;100090.19;;;26.33;31.23
66385;BME280;53426;55.872;37.462;2022-08-11T12:24:25;100078.47;;;26.33;31.83
66385;BME280;53426;55.872;37.462;2022-08-11T12:27:11;100086.00;;;26.31;31.63
66385;BME280;53426;55.872;37.462;2022-08-11T12:29:49;100087.47;;;26.33;31.59
66385;BME280;53426;55.872;37.462;2022-08-11T12:32:16;100078.47;;;26.33;31.45
66385;BME280;53426;55.872;37.462;2022-08-11T12:34:42;100077.59;;;26.39;31.33
66385;BME280;53426;55.872;37.462;2022-08-11T12:37:09;100070.75;;;26.30;31.99
66385;BME280;53426;55.872;37.462;2022-08-11T12:39:57;100070.16;;;26.28;32.46
66385;BME280;53426;55.872;37.462;2022-08-11T12:42:43;100088.72;;;26.31;33.30
66385;BME280;53426;55.872;37.462;2022-08-11T12:45:29;100088.72;;;26.31;33.45
66385;BME280;53426;55.872;37.462;2022-08-11T12:48:23;100086.00;;;26.31;33.49
66385;BME280;53426;55.872;37.462;2022-08-11T12:51:09;100078.88;;;26.36;34.13
66385;BME280;53426;55.872;37.462;2022-08-11T12:54:14;100081.50;;;26.49;33.10
66385;BME280;53426;55.872;37.462;2022-08-11T12:56:48;100084.09;;;26.38;33.55
66385;BME280;53426;55.872;37.462;2022-08-11T12:59:34;100080.16;;;26.34;33.38
66385;BME280;53426;55.872;37.462;2022-08-11T13:02:20;100076.81;;;26.32;33.50
66385;BME280;53426;55.872;37.462;2022-08-11T13:05:13;100088.72;;;26.31;33.28
66385;BME280;53426;55.872;37.462;2022-08-11T13:07:42;100090.22;;;26.27;32.84
66385;BME280;53426;55.872;37.462;2022-08-11T13:10:11;100086.25;;;26.22;32.93
66385;BME280;53426;55.872;37.462;2022-08-11T13:12:38;100080.84;;;26.22;32.79
66385;BME280;53426;55.872;37.462;2022-08-11T13:15:19;100086.44;;;26.28;32.89
66385;BME280;53426;55.872;37.462;2022-08-11T13:17:46;100085.22;;;26.23;32.80
66385;BME280;53426;55.872;37.462;2022-08-11T13:20:16;100079.13;;;26.21;32.33
66385;BME280;53426;55.872;37.462;2022-08-11T13:22:47;100080.59;;;26.24;32.39
66385;BME280;53426;55.872;37.462;2022-08-11T13:25:16;100073.69;;;26.21;32.08
66385;BME280;53426;55.872;37.462;2022-08-11T13:27:47;100079.13;;;26.21;32.41
66385;BME280;53426;55.872;37.462;2022-08-11T13:30:14;100075.59;;;26.14;31.65
66385;BME280;53426;55.872;37.462;2022-08-11T13:33:02;100076.66;;;26.13;32.27
66385;BME280;53426;55.872;37.462;2022-08-11T13:35:32;100073.94;;;26.13;31.67
66385;BME280;53426;55.872;37.462;2022-08-11T13:38:00;100065.59;;;26.15;31.88
66385;BME280;53426;55.872;37.462;2022-08-11T13:40:31;100058.50;;;26.14;32.32
66385;BME280;53426;55.872;37.462;2022-08-11T13:43:00;100069.78;;;26.11;32.47
66385;BME280;53426;55.872;37.462;2022-08-11T13:45:26;100069.78;;;26.11;32.48
66385;BME280;53426;55.872;37.462;2022-08-11T13:47:55;100070.19;;;26.14;32.39
66385;BME280;53426;55.872;37.462;2022-08-11T13:50:24;100056.88;;;26.06;32.54
66385;BME280;53426;55.872;37.462;2022-08-11T13:53:16;100056.25;;;26.04;32.24
66385;BME280;53426;55.872;37.462;2022-08-11T13:55:45;100053.13;;;26.07;32.43
66385;BME280;53426;55.872;37.462;2022-08-11T13:58:12;100050.66;;;25.99;31.82
66385;BME280;53426;55.872;37.462;2022-08-11T14:00:40;100051.03;;;26.03;32.24
66385;BME280;53426;55.872;37.462;2022-08-11T14:03:13;100048.94;;;26.05;31.96
66385;BME280;53426;55.872;37.462;2022-08-11T14:05:47;100047.28;;;26.04;32.22
66385;BME280;53426;55.872;37.462;2022-08-11T14:08:19;100053.31;;;26.12;32.41
66385;BME280;53426;55.872;37.462;2022-08-11T14:10:48;100045.16;;;26.12;31.68
66385;BME280;53426;55.872;37.462;2022-08-11T14:13:39;100044.50;;;26.17;32.44
66385;BME280;53426;55.872;37.462;2022-08-11T14:16:18;100047.81;;;26.26;32.29
66385;BME280;53426;55.872;37.462;2022-08-11T14:18:47;100052.19;;;26.27;32.22
66385;BME280;53426;55.872;37.462;2022-08-11T14:21:16;100046.78;;;26.27;32.00
66385;BME280;53426;55.872;37.462;2022-08-11T14:24:02;100042.16;;;26.27;31.70
66385;BME280;53426;55.872;37.462;2022-08-11T14:26:30;100039.47;;;26.27;31.81
66385;BME280;53426;55.872;37.462;2022-08-11T14:29:12;100030.03;;;26.30;31.80
66385;BME280;53426;55.872;37.462;2022-08-11T14:31:56;100027.97;;;26.18;30.89
66385;BME280;53426;55.872;37.462;2022-08-11T14:34:24;100019.31;;;26.03;30.76
66385;BME280;53426;55.872;37.462;2022-08-11T14:36:58;100020.94;;;26.11;31.78
66385;BME280;53426;55.872;37.462;2022-08-11T14:39:27;100020.72;;;26.12;31.49
66385;BME280;53426;55.872;37.462;2022-08-11T14:42:02;100021.78;;;26.11;31.65
66385;BME280;53426;55.872;37.462;2022-08-11T14:44:48;100023.44;;;26.12;31.65
66385;BME280;53426;55.872;37.462;2022-08-11T14:47:35;100022.81;;;26.10;30.85
66385;BME280;53426;55.872;37.462;2022-08-11T14:50:03;100019.66;;;26.13;31.39
66385;BME280;53426;55.872;37.462;2022-08-11T14:52:31;100021.94;;;26.16;31.50
66385;BME280;53426;55.872;37.462;2022-08-11T14:55:00;100017.78;;;26.14;31.53
66385;BME280;53426;55.872;37.462;2022-08-11T14:57:45;100013.81;;;26.16;31.38
66385;BME280;53426;55.872;37.462;2022-08-11T15:00:13;100017.13;;;26.18;31.39
66385;BME280;53426;55.872;37.462;2022-08-11T15:02:40;100006.25;;;26.18;31.61
66385;BME280;53426;55.872;37.462;2022-08-11T15:05:26;100013.59;;;26.18;32.00
66385;BME280;53426;55.872;37.462;2022-08-11T15:07:53;100013.84;;;26.10;32.00
66385;BME280;53426;55.872;37.462;2022-08-11T15:10:21;100011.34;;;26.08;31.64
66385;BME280;53426;55.872;37.462;2022-08-11T15:12:47;100012.63;;;26.06;32.04
66385;BME280;53426;55.872;37.462;2022-08-11T15:15:14;100015.94;;;26.08;32.08
66385;BME280;53426;55.872;37.462;2022-08-11T15:18:21;100005.13;;;26.01;32.21
66385;BME280;53426;55.872;37.462;2022-08-11T15:20:49;100016.19;;;26.00;31.74
66385;BME280;53426;55.872;37.462;2022-08-11T15:23:34;100007.03;;;26.01;31.86
66385;BME280;53426;55.872;37.462;2022-08-11T15:26:32;100018.25;;;26.04;32.16
66385;BME280;53426;55.872;37.462;2022-08-11T15:29:23;100013.28;;;26.01;32.24
66385;BME280;53426;55.872;37.462;2022-08-11T15:32:09;100009.72;;;26.01;33.71
66385;BME280;53426;55.872;37.462;2022-08-11T15:35:01;100015.34;;;26.06;32.70
66385;BME280;53426;55.872;37.462;2022-08-11T15:37:49;100008.06;;;26.00;32.85
66385;BME280;53426;55.872;37.462;2022-08-11T15:40:28;100013.47;;;26.06;33.27
66385;BME280;53426;55.872;37.462;2022-08-11T15:43:20;100008.47;;;25.97;32.95
66385;BME280;53426;55.872;37.462;2022-08-11T15:46:12;100008.69;;;26.02;33.03
66385;BME280;53426;55.872;37.462;2022-08-11T15:48:58;100006.78;;;26.02;32.94
66385;BME280;53426;55.872;37.462;2022-08-11T15:51:39;100002.00;;;25.98;33.00
66385;BME280;53426;55.872;37.462;2022-08-11T15:54:25;100009.94;;;25.99;32.86
66385;BME280;53426;55.872;37.462;2022-08-11T15:56:57;100004.97;;;25.96;33.07
66385;BME280;53426;55.872;37.462;2022-08-11T15:59:27;100010.59;;;25.95;33.37
66385;BME280;53426;55.872;37.462;2022-08-11T16:02:16;100009.38;;;25.91;33.39
66385;BME280;53426;55.872;37.462;2022-08-11T16:08:29;100011.91;;;25.86;33.58
66385;BME280;53426;55.872;37.462;2022-08-11T16:10:56;100009.41;;;25.84;33.96
66385;BME280;53426;55.872;37.462;2022-08-11T16:13:24;100005.47;;;25.80;33.66
66385;BME280;53426;55.872;37.462;2022-08-11T16:15:54;100010.22;;;25.85;34.37
66385;BME280;53426;55.872;37.462;2022-08-11T16:18:52;100008.56;;;25.83;34.11
66385;BME280;53426;55.872;37.462;2022-08-11T16:21:39;100007.53;;;25.78;33.84
66385;BME280;53426;55.872;37.462;2022-08-11T16:24:12;100007.97;;;25.75;33.92
66385;BME280;53426;55.872;37.462;2022-08-11T16:26:41;100006.13;;;25.69;34.09
66385;BME280;53426;55.872;37.462;2022-08-11T16:29:07;100000.72;;;25.69;33.98
66385;BME280;53426;55.872;37.462;2022-08-11T16:31:36;100000.53;;;25.64;34.50
66385;BME280;53426;55.872;37.462;2022-08-11T16:34:03;100002.78;;;25.67;35.52
66385;BME280;53426;55.872;37.462;2022-08-11T16:36:30;100010.13;;;25.60;34.79
66385;BME280;53426;55.872;37.462;2022-08-11T16:39:19;100012.00;;;25.53;34.81
66385;BME280;53426;55.872;37.462;2022-08-11T16:41:46;100005.13;;;25.43;35.20
66385;BME280;53426;55.872;37.462;2022-08-11T16:44:32;100008.88;;;25.56;35.02
66385;BME280;53426;55.872;37.462;2022-08-11T16:47:18;100005.97;;;25.51;34.58
66385;BME280;53426;55.872;37.462;2022-08-11T16:49:49;99997.28;;;25.29;34.90
66385;BME280;53426;55.872;37.462;2022-08-11T16:52:16;100008.31;;;25.27;35.10
66385;BME280;53426;55.872;37.462;2022-08-11T16:54:42;100007.53;;;25.14;35.07
66385;BME280;53426;55.872;37.462;2022-08-11T16:57:11;100022.75;;;25.08;35.09
66385;BME280;53426;55.872;37.462;2022-08-11T17:00:03;100019.59;;;25.11;35.63
66385;BME280;53426;55.872;37.462;2022-08-11T17:02:51;100010.25;;;25.00;35.34
66385;BME280;53426;55.872;37.462;2022-08-11T17:05:49;100012.13;;;24.80;36.06
66385;BME280;53426;55.872;37.462;2022-08-11T17:08:47;100010.66;;;24.71;36.83
66385;BME280;53426;55.872;37.462;2022-08-11T17:11:51;100019.84;;;24.70;36.58
66385;BME280;53426;55.872;37.462;2022-08-11T17:14:47;100017.13;;;24.70;36.59
66385;BME280;53426;55.872;37.462;2022-08-11T17:17:27;100022.09;;;24.67;36.97
66385;BME280;53426;55.872;37.462;2022-08-11T17:20:02;100015.88;;;24.59;36.83
66385;BME280;53426;55.872;37.462;2022-08-11T17:22:33;100019.00;;;24.70;37.14